Wednesday, December 12, 2018, 11:02 PM EST
Back to Local

KMTP, Montauk Airport

Location: Montauk, NY, United States Lat: 41.067
Local Time: 11:02 PM EST ( 4:02 GMT) Lon: -71.917
Time Zone: US/Eastern Elev: 6 ft

Show me the last for .
Show Decoded

2018-12-12 21:54 METAR KMTP 130254Z AUTO 02005KT 01/M08 A3029 RMK AO1 SLP256 T00061078 53025 =
2018-12-12 20:54 METAR KMTP 130154Z AUTO 01008KT 02/M07 A3026 RMK AO1 SLP246 T00171067 =
2018-12-12 19:54 METAR KMTP 130054Z AUTO 01008KT 02/M06 A3024 RMK AO1 SLP238 T00221061 =
2018-12-12 18:54 METAR KMTP 122354Z AUTO 36008KT 03/M06 A3022 RMK AO1 SLP231 T00281056 10050
                 20028 53028 =
2018-12-12 17:54 METAR KMTP 122254Z AUTO 34010KT 03/M06 A3019 RMK AO1 SLP221 T00331061 =
2018-12-12 16:54 METAR KMTP 122154Z AUTO 33011G17KT 03/M06 A3015 RMK AO1 SLP211 T00331061 =
2018-12-12 15:54 METAR KMTP 122054Z AUTO 30009G16KT 04/M07 A3013 RMK AO1 SLP203 T00391067 53020 =
2018-12-12 14:54 METAR KMTP 121954Z AUTO 31008KT 04/M07 A3010 RMK AO1 SLP193 T00391067 =
2018-12-12 13:54 METAR KMTP 121854Z AUTO 32009KT 04/M08 A3008 RMK AO1 SLP185 T00441078 =
2018-12-12 12:54 METAR KMTP 121754Z AUTO 35010KT 04/M08 A3007 RMK AO1 SLP182 T00441078 10044
                 20006 58000 =
2018-12-12 11:54 METAR KMTP 121654Z AUTO 33016G23KT 04/M08 A3008 RMK AO1 SLP186 T00391078 =
2018-12-12 10:54 METAR KMTP 121554Z AUTO 33013G20KT 03/M06 A3008 RMK AO1 SLP186 T00281056 =
2018-12-12 09:54 METAR KMTP 121454Z AUTO 33013G23KT 02/M04 A3007 RMK AO1 SLP183 T00171039 51021 =
2018-12-12 08:54 METAR KMTP 121354Z AUTO 33014G20KT 02/M04 A3005 RMK AO1 SLP176 T00171039 =
2018-12-12 07:54 METAR KMTP 121254Z AUTO 32013G22KT 01/M04 A3003 RMK AO1 SLP169 T00111039 =
2018-12-12 06:54 METAR KMTP 121154Z AUTO 32014G20KT 01/M04 A3001 RMK AO1 SLP161 T00061039 10028
                 20000 53026 =
2018-12-12 05:54 METAR KMTP 121054Z AUTO 33012G20KT 01/M04 A2998 RMK AO1 SLP151 T00061044 =
2018-12-12 04:54 METAR KMTP 120954Z AUTO 34015G21KT 00/M06 A2996 RMK AO1 SLP143 T00001056 =
2018-12-12 03:54 METAR KMTP 120854Z AUTO 33011G20KT 00/M06 A2993 RMK AO1 SLP135 T00001056 51018 =
2018-12-12 02:54 METAR KMTP 120754Z AUTO 33012KT 01/M06 A2992 RMK AO1 SLP131 T00061061 =
2018-12-12 01:54 METAR KMTP 120654Z AUTO 34012G21KT 02/M04 A2990 RMK AO1 SLP124 T00221044 =
2018-12-12 00:54 METAR KMTP 120554Z AUTO 33010KT 03/M01 A2988 RMK AO1 SLP118 T00281011 10039
                 21011 56020 =
2018-12-11 23:54 METAR KMTP 120454Z AUTO 33008KT 03/M02 A2989 RMK AO1 SLP122 T00331022 400501011
                 =

Support USWX by starting your Amazon purchase here.